createdAt,value
2022-09-07T00:01:12.187Z,3.60
2022-09-07T00:04:54.036Z,2.83
2022-09-07T00:08:35.940Z,3.60
2022-09-07T00:12:17.715Z,2.60
2022-09-07T00:16:05.593Z,3.33
2022-09-07T00:19:48.366Z,2.73
2022-09-07T00:23:31.632Z,2.73
2022-09-07T00:27:13.476Z,3.00
2022-09-07T00:30:55.269Z,3.27
2022-09-07T00:34:37.178Z,2.70
2022-09-07T00:38:19.281Z,3.03
2022-09-07T00:42:01.496Z,4.00
2022-09-07T00:45:43.391Z,3.30
2022-09-07T00:49:25.392Z,3.47
2022-09-07T00:53:28.046Z,2.97
2022-09-07T00:57:10.061Z,2.93
2022-09-07T01:00:52.123Z,2.83
2022-09-07T01:04:35.462Z,3.23
2022-09-07T01:08:18.289Z,3.03
2022-09-07T01:12:02.127Z,3.20
2022-09-07T01:16:26.076Z,3.37
2022-09-07T01:20:29.827Z,3.10
2022-09-07T01:24:27.892Z,3.10
2022-09-07T01:28:12.334Z,2.73
2022-09-07T01:32:01.315Z,3.23
2022-09-07T01:36:00.880Z,4.10
2022-09-07T01:39:47.875Z,3.57
2022-09-07T01:43:43.016Z,3.53
2022-09-07T01:47:32.751Z,3.87
2022-09-07T01:51:16.713Z,4.60
2022-09-07T01:55:05.470Z,3.87
2022-09-07T01:58:56.173Z,3.87
2022-09-07T02:06:40.067Z,3.10
2022-09-07T02:10:35.081Z,3.27
2022-09-07T02:14:35.468Z,3.87
2022-09-07T02:18:17.399Z,3.75
2022-09-07T02:22:08.667Z,4.17
2022-09-07T02:26:00.292Z,3.30
2022-09-07T02:29:43.613Z,5.27
2022-09-07T02:33:25.969Z,4.07
2022-09-07T02:37:09.345Z,4.10
2022-09-07T02:40:53.742Z,4.33
2022-09-07T02:44:39.608Z,4.27
2022-09-07T02:48:58.816Z,4.00
2022-09-07T02:53:05.254Z,3.90
2022-09-07T02:56:59.921Z,4.43
2022-09-07T03:01:19.883Z,4.23
2022-09-07T03:05:16.184Z,4.28
2022-09-07T03:09:00.205Z,4.43
2022-09-07T03:12:47.638Z,3.67
2022-09-07T03:16:29.375Z,3.57
2022-09-07T03:20:11.492Z,4.30
2022-09-07T03:23:53.283Z,3.53
2022-09-07T03:27:35.185Z,3.97
2022-09-07T03:31:17.073Z,3.37
2022-09-07T03:35:00.034Z,3.37
2022-09-07T03:38:41.836Z,3.70
2022-09-07T03:42:23.930Z,3.40
2022-09-07T03:46:06.707Z,3.30
2022-09-07T03:49:48.999Z,3.77
2022-09-07T03:53:32.506Z,3.50
2022-09-07T03:57:14.486Z,3.23
2022-09-07T04:00:56.297Z,2.87
2022-09-07T04:04:38.093Z,3.20
2022-09-07T04:08:19.840Z,4.00
2022-09-07T04:12:02.212Z,3.33
2022-09-07T04:15:44.233Z,3.90
2022-09-07T04:19:26.196Z,3.40
2022-09-07T04:23:07.919Z,3.50
2022-09-07T04:26:49.707Z,3.30
2022-09-07T04:30:35.211Z,3.50
2022-09-07T04:34:17.476Z,3.57
2022-09-07T04:37:59.186Z,3.67
2022-09-07T04:41:40.954Z,2.87
2022-09-07T04:45:22.813Z,2.97
2022-09-07T04:49:10.501Z,4.23
2022-09-07T04:52:52.214Z,3.67
2022-09-07T04:56:34.500Z,3.67
2022-09-07T05:00:16.881Z,3.53
2022-09-07T05:04:02.523Z,4.30
2022-09-07T05:07:44.581Z,3.83
2022-09-07T05:11:29.543Z,3.83
2022-09-07T05:15:11.699Z,3.33
2022-09-07T05:18:56.072Z,4.03
2022-09-07T05:22:40.999Z,3.47
2022-09-07T05:26:24.192Z,4.50
2022-09-07T05:30:06.991Z,7.17
2022-09-07T05:38:01.604Z,4.43
2022-09-07T05:41:47.508Z,3.93
2022-09-07T05:45:33.953Z,3.60
2022-09-07T05:49:19.981Z,11.27
2022-09-07T05:53:05.546Z,4.97
2022-09-07T05:56:47.530Z,3.87
2022-09-07T06:00:29.538Z,4.47
2022-09-07T06:04:11.387Z,3.93
2022-09-07T06:07:53.323Z,4.80
2022-09-07T06:11:36.807Z,4.10
2022-09-07T06:15:18.682Z,5.03
2022-09-07T06:19:06.026Z,4.23
2022-09-07T06:22:47.741Z,4.90
2022-09-07T06:26:29.520Z,4.60
2022-09-07T06:30:12.112Z,4.63
2022-09-07T06:33:54.925Z,3.77
2022-09-07T06:37:36.779Z,4.13
2022-09-07T06:45:26.182Z,4.67
2022-09-07T06:49:07.990Z,4.03
2022-09-07T06:56:51.692Z,4.47
2022-09-07T07:00:33.408Z,4.13
2022-09-07T07:04:15.212Z,4.20
2022-09-07T07:07:56.995Z,4.40
2022-09-07T07:11:38.850Z,4.17
2022-09-07T07:15:20.613Z,4.67
2022-09-07T07:19:02.390Z,5.37
2022-09-07T07:22:46.839Z,4.20
2022-09-07T07:26:28.881Z,5.07
2022-09-07T07:30:10.888Z,3.33
2022-09-07T07:33:53.410Z,4.40
2022-09-07T07:37:36.805Z,4.50
2022-09-07T07:49:24.961Z,4.30
2022-09-07T07:57:08.702Z,3.40
2022-09-07T08:00:54.790Z,2.97
2022-09-07T08:04:37.134Z,3.40
2022-09-07T08:08:19.027Z,3.50
2022-09-07T08:12:02.678Z,2.93
2022-09-07T08:15:47.336Z,2.97
2022-09-07T08:19:29.156Z,3.10
2022-09-07T08:23:11.701Z,2.13
2022-09-07T08:26:53.597Z,3.17
2022-09-07T08:30:39.973Z,2.40
2022-09-07T08:34:22.008Z,2.30
2022-09-07T08:38:03.759Z,2.43
2022-09-07T08:42:03.522Z,1.77
2022-09-07T08:46:00.189Z,2.42
2022-09-07T08:50:01.255Z,2.47
2022-09-07T08:53:46.601Z,3.13
2022-09-07T08:57:32.499Z,2.27
2022-09-07T09:01:31.260Z,2.53
2022-09-07T09:05:37.128Z,2.40
2022-09-07T09:09:32.675Z,2.13
2022-09-07T09:13:19.373Z,2.50
2022-09-07T09:17:17.665Z,2.90
2022-09-07T09:21:00.505Z,2.43
2022-09-07T09:24:47.698Z,2.10
2022-09-07T09:28:31.868Z,2.00
2022-09-07T09:32:38.976Z,1.97
2022-09-07T09:36:31.308Z,2.07
2022-09-07T09:40:23.720Z,2.27
2022-09-07T09:44:05.670Z,2.00
2022-09-07T09:47:50.951Z,2.93
2022-09-07T09:55:52.092Z,2.00
2022-09-07T10:07:39.222Z,2.00
2022-09-07T10:15:42.651Z,1.30
2022-09-07T10:19:37.226Z,1.80
2022-09-07T10:23:24.011Z,1.60
2022-09-07T10:27:25.645Z,1.67
2022-09-07T10:31:19.476Z,1.43
2022-09-07T10:35:47.777Z,1.57
2022-09-07T10:40:07.399Z,1.88
2022-09-07T10:43:53.663Z,1.92
2022-09-07T10:47:57.648Z,1.90
2022-09-07T10:52:09.223Z,1.48
2022-09-07T10:56:26.299Z,1.83
2022-09-07T11:00:16.435Z,2.78
2022-09-07T11:04:29.460Z,1.70
2022-09-07T11:08:14.076Z,1.75
2022-09-07T11:12:03.816Z,1.45
2022-09-07T11:15:52.734Z,1.80
2022-09-07T11:20:08.502Z,1.58
2022-09-07T11:24:01.833Z,1.20
2022-09-07T11:27:51.474Z,1.00
2022-09-07T11:31:41.675Z,1.40
2022-09-07T11:35:49.964Z,2.75
2022-09-07T11:40:00.424Z,1.60
2022-09-07T11:43:49.508Z,1.80
2022-09-07T11:47:49.915Z,1.88
2022-09-07T11:51:43.299Z,2.40
2022-09-07T11:55:29.413Z,1.90
2022-09-07T11:59:27.654Z,1.52
2022-09-07T12:03:41.207Z,1.23
2022-09-07T12:08:13.562Z,1.33
2022-09-07T12:12:09.345Z,2.10
2022-09-07T12:16:02.925Z,1.85
2022-09-07T12:19:44.873Z,1.50
2022-09-07T12:23:29.771Z,1.48
2022-09-07T12:27:20.309Z,1.65
2022-09-07T12:31:04.732Z,0.98
2022-09-07T12:35:04.849Z,1.92
2022-09-07T12:39:19.468Z,1.20
2022-09-07T12:43:13.395Z,1.38
2022-09-07T12:46:56.530Z,1.25
2022-09-07T12:51:02.280Z,1.33
2022-09-07T12:55:27.888Z,1.30
2022-09-07T12:59:22.239Z,1.85
2022-09-07T13:07:43.900Z,1.20
2022-09-07T13:11:32.910Z,1.30
2022-09-07T13:15:33.426Z,1.17
2022-09-07T13:19:50.395Z,1.63
2022-09-07T13:23:32.214Z,0.88
2022-09-07T13:27:43.954Z,1.20
2022-09-07T13:31:34.701Z,1.40
2022-09-07T13:35:21.478Z,1.45
2022-09-07T13:39:09.043Z,1.42
2022-09-07T13:42:52.400Z,1.50
2022-09-07T13:46:39.995Z,1.33
2022-09-07T13:50:42.728Z,1.38
2022-09-07T13:54:47.777Z,1.40
2022-09-07T13:58:35.373Z,1.70
2022-09-07T14:02:27.494Z,2.00
2022-09-07T14:06:16.239Z,7.32
2022-09-07T14:10:12.436Z,1.43
2022-09-07T14:14:06.989Z,1.73
2022-09-07T14:18:02.318Z,1.52
2022-09-07T14:21:44.289Z,1.30
2022-09-07T14:25:26.437Z,1.50
2022-09-07T14:29:22.440Z,1.48
2022-09-07T14:33:22.892Z,1.50
2022-09-07T14:37:08.176Z,1.30
2022-09-07T14:40:57.582Z,1.60
2022-09-07T14:44:43.038Z,1.13
2022-09-07T14:48:32.208Z,1.40
2022-09-07T14:52:21.807Z,1.48
2022-09-07T14:56:09.747Z,1.08
2022-09-07T14:59:53.738Z,1.58
2022-09-07T15:03:35.588Z,1.42
2022-09-07T15:07:30.404Z,1.27
2022-09-07T15:11:33.373Z,1.45
2022-09-07T15:15:18.296Z,5.60
2022-09-07T15:19:05.620Z,2.35
2022-09-07T15:22:47.380Z,1.38
2022-09-07T15:30:39.155Z,1.40
2022-09-07T15:34:21.288Z,1.10
2022-09-07T15:38:05.226Z,1.20
2022-09-07T15:41:48.162Z,1.40
2022-09-07T15:45:29.881Z,1.70
2022-09-07T15:49:12.476Z,4.32
2022-09-07T15:52:54.349Z,2.67
2022-09-07T15:56:36.862Z,1.50
2022-09-07T16:00:18.932Z,1.45
2022-09-07T16:04:01.713Z,1.48
2022-09-07T16:11:50.913Z,2.90
2022-09-07T16:15:34.143Z,3.95
2022-09-07T16:19:20.099Z,2.17
2022-09-07T16:23:17.786Z,1.60
2022-09-07T16:26:59.891Z,1.58
2022-09-07T16:30:41.749Z,1.27
2022-09-07T17:37:34.750Z,1.92
2022-09-07T17:41:21.202Z,1.93
2022-09-07T17:45:04.336Z,1.77
2022-09-07T17:48:47.726Z,1.37
2022-09-07T17:52:30.807Z,1.60
2022-09-07T17:56:15.543Z,1.80
2022-09-07T18:00:15.056Z,3.47
2022-09-07T18:03:57.900Z,1.60
2022-09-07T18:07:39.711Z,1.77
2022-09-07T18:15:24.146Z,1.57
2022-09-07T18:19:09.761Z,1.20
2022-09-07T18:22:51.622Z,1.30
2022-09-07T18:26:36.195Z,1.10
2022-09-07T18:30:17.965Z,1.17
2022-09-07T18:34:01.667Z,1.07
2022-09-07T18:37:43.793Z,1.07
2022-09-07T18:41:25.530Z,1.40
2022-09-07T18:49:09.203Z,1.30
2022-09-07T18:52:52.610Z,0.83
2022-09-07T18:56:34.836Z,1.10
2022-09-07T19:00:18.249Z,1.20
2022-09-07T19:04:00.284Z,0.90
2022-09-07T19:07:42.053Z,1.40
2022-09-07T19:11:25.552Z,1.20
2022-09-07T19:15:07.679Z,1.03
2022-09-07T19:18:54.646Z,1.30
2022-09-07T19:22:36.357Z,1.40
2022-09-07T19:26:18.292Z,1.40
2022-09-07T19:30:00.401Z,1.50
2022-09-07T19:33:42.146Z,2.90
2022-09-07T19:37:25.484Z,1.20
2022-09-07T19:41:09.020Z,1.10
2022-09-07T19:44:51.475Z,1.10
2022-09-07T19:48:33.189Z,1.23
2022-09-07T19:52:15.395Z,1.80
2022-09-07T19:56:17.215Z,4.50
2022-09-07T20:00:00.219Z,1.50
2022-09-07T20:03:42.235Z,1.20
2022-09-07T20:07:24.052Z,1.93
2022-09-07T20:11:08.338Z,2.10
2022-09-07T20:14:50.575Z,2.53
2022-09-07T20:18:34.359Z,1.73
2022-09-07T20:22:16.364Z,1.97
2022-09-07T20:26:06.505Z,1.80
2022-09-07T20:29:48.239Z,7.78
2022-09-07T20:33:31.716Z,2.20
2022-09-07T20:37:13.437Z,1.90
2022-09-07T20:40:57.825Z,2.43
2022-09-07T20:44:39.792Z,1.50
2022-09-07T20:48:21.479Z,2.17
2022-09-07T20:52:03.270Z,1.50
2022-09-07T20:55:44.953Z,1.40
2022-09-07T20:59:26.705Z,1.70
2022-09-07T21:03:10.185Z,2.87
2022-09-07T21:06:52.310Z,1.90
2022-09-07T21:10:37.857Z,1.47
2022-09-07T21:14:21.310Z,2.10
2022-09-07T21:18:03.068Z,1.90
2022-09-07T21:21:44.757Z,2.03
2022-09-07T21:25:26.480Z,2.07
2022-09-07T21:29:10.752Z,1.90
2022-09-07T21:32:52.785Z,1.97
2022-09-07T21:36:34.488Z,1.70
2022-09-07T21:40:17.284Z,2.07
2022-09-07T21:44:01.438Z,1.93
2022-09-07T21:47:43.205Z,2.27
2022-09-07T21:51:26.250Z,2.17
2022-09-07T21:55:08.520Z,1.90
2022-09-07T21:58:57.231Z,2.47
2022-09-07T22:02:38.930Z,2.33
2022-09-07T22:06:20.673Z,2.43
2022-09-07T22:10:02.474Z,2.33
2022-09-07T22:13:44.438Z,2.30
2022-09-07T22:17:26.165Z,1.90
2022-09-07T22:21:13.702Z,2.13
2022-09-07T22:24:55.400Z,2.07
2022-09-07T22:28:37.917Z,2.47
2022-09-07T22:32:19.614Z,2.20
2022-09-07T22:36:13.912Z,2.17
2022-09-07T22:39:55.655Z,2.37
2022-09-07T22:43:38.193Z,2.13
2022-09-07T22:47:19.900Z,2.50
2022-09-07T22:51:02.850Z,1.90
2022-09-07T22:54:45.710Z,2.17
2022-09-07T22:58:30.256Z,2.80
2022-09-07T23:02:11.933Z,2.10
2022-09-07T23:05:53.775Z,2.37
2022-09-07T23:09:35.595Z,2.80
2022-09-07T23:13:17.653Z,2.17
2022-09-07T23:16:59.405Z,2.30
2022-09-07T23:32:45.545Z,2.27
2022-09-07T23:36:28.212Z,1.67
2022-09-07T23:40:11.371Z,2.03
2022-09-07T23:43:54.176Z,2.20
2022-09-07T23:47:35.892Z,1.80
2022-09-07T23:51:22.783Z,2.30
2022-09-07T23:55:06.565Z,2.20
2022-09-07T23:58:48.350Z,2.20
